sensor_id;sensor_type;location;lat;lon;timestamp;P1;durP1;ratioP1;P2;durP2;ratioP2
36787;SDS011;22738;45.560;9.434;2022-07-17T00:03:47;11.05;;;6.68;;
36787;SDS011;22738;45.560;9.434;2022-07-17T00:10:28;12.23;;;7.72;;
36787;SDS011;22738;45.560;9.434;2022-07-17T00:17:09;9.25;;;6.95;;
36787;SDS011;22738;45.560;9.434;2022-07-17T00:23:50;18.02;;;7.32;;
36787;SDS011;22738;45.560;9.434;2022-07-17T00:30:31;11.95;;;6.40;;
36787;SDS011;22738;45.560;9.434;2022-07-17T00:37:12;13.25;;;6.57;;
36787;SDS011;22738;45.560;9.434;2022-07-17T00:43:53;9.63;;;6.15;;
36787;SDS011;22738;45.560;9.434;2022-07-17T00:50:35;12.27;;;5.97;;
36787;SDS011;22738;45.560;9.434;2022-07-17T00:57:18;9.80;;;6.07;;
36787;SDS011;22738;45.560;9.434;2022-07-17T01:04:01;19.50;;;6.60;;
36787;SDS011;22738;45.560;9.434;2022-07-17T01:10:42;10.98;;;6.10;;
36787;SDS011;22738;45.560;9.434;2022-07-17T01:17:23;12.02;;;6.00;;
36787;SDS011;22738;45.560;9.434;2022-07-17T01:24:05;11.55;;;5.05;;
36787;SDS011;22738;45.560;9.434;2022-07-17T01:30:47;8.95;;;4.88;;
36787;SDS011;22738;45.560;9.434;2022-07-17T01:37:29;15.57;;;5.68;;
36787;SDS011;22738;45.560;9.434;2022-07-17T01:44:10;15.52;;;6.10;;
36787;SDS011;22738;45.560;9.434;2022-07-17T01:50:51;11.05;;;5.93;;
36787;SDS011;22738;45.560;9.434;2022-07-17T01:57:33;13.95;;;6.68;;
36787;SDS011;22738;45.560;9.434;2022-07-17T02:04:14;15.27;;;6.18;;
36787;SDS011;22738;45.560;9.434;2022-07-17T02:10:56;11.45;;;6.40;;
36787;SDS011;22738;45.560;9.434;2022-07-17T02:17:38;8.07;;;4.85;;
36787;SDS011;22738;45.560;9.434;2022-07-17T02:24:19;11.35;;;5.68;;
36787;SDS011;22738;45.560;9.434;2022-07-17T02:31:00;14.18;;;6.15;;
36787;SDS011;22738;45.560;9.434;2022-07-17T02:37:43;13.20;;;5.80;;
36787;SDS011;22738;45.560;9.434;2022-07-17T02:44:26;6.17;;;5.30;;
36787;SDS011;22738;45.560;9.434;2022-07-17T02:51:07;12.50;;;7.05;;
36787;SDS011;22738;45.560;9.434;2022-07-17T02:57:49;10.27;;;6.55;;
36787;SDS011;22738;45.560;9.434;2022-07-17T03:04:30;11.63;;;7.65;;
36787;SDS011;22738;45.560;9.434;2022-07-17T03:11:12;8.15;;;6.72;;
36787;SDS011;22738;45.560;9.434;2022-07-17T03:17:53;10.05;;;6.95;;
36787;SDS011;22738;45.560;9.434;2022-07-17T03:24:34;9.85;;;6.85;;
36787;SDS011;22738;45.560;9.434;2022-07-17T03:31:15;13.02;;;7.43;;
36787;SDS011;22738;45.560;9.434;2022-07-17T03:37:56;12.35;;;7.20;;
36787;SDS011;22738;45.560;9.434;2022-07-17T03:44:37;7.70;;;6.22;;
36787;SDS011;22738;45.560;9.434;2022-07-17T03:51:19;9.98;;;6.88;;
36787;SDS011;22738;45.560;9.434;2022-07-17T03:58:00;12.07;;;7.05;;
36787;SDS011;22738;45.560;9.434;2022-07-17T04:04:41;8.40;;;6.72;;
36787;SDS011;22738;45.560;9.434;2022-07-17T04:11:22;8.63;;;6.25;;
36787;SDS011;22738;45.560;9.434;2022-07-17T04:18:03;8.57;;;6.95;;
36787;SDS011;22738;45.560;9.434;2022-07-17T04:24:44;10.00;;;6.72;;
36787;SDS011;22738;45.560;9.434;2022-07-17T04:31:25;8.98;;;7.38;;
36787;SDS011;22738;45.560;9.434;2022-07-17T04:38:07;10.43;;;6.85;;
36787;SDS011;22738;45.560;9.434;2022-07-17T04:44:48;14.80;;;6.10;;
36787;SDS011;22738;45.560;9.434;2022-07-17T04:51:29;14.40;;;6.47;;
36787;SDS011;22738;45.560;9.434;2022-07-17T04:58:10;15.68;;;7.82;;
36787;SDS011;22738;45.560;9.434;2022-07-17T05:04:51;9.82;;;7.57;;
36787;SDS011;22738;45.560;9.434;2022-07-17T05:11:32;12.13;;;7.53;;
36787;SDS011;22738;45.560;9.434;2022-07-17T05:18:13;12.05;;;9.27;;
36787;SDS011;22738;45.560;9.434;2022-07-17T05:24:54;7.85;;;6.93;;
36787;SDS011;22738;45.560;9.434;2022-07-17T05:31:35;11.48;;;7.15;;
36787;SDS011;22738;45.560;9.434;2022-07-17T05:38:16;14.23;;;7.97;;
36787;SDS011;22738;45.560;9.434;2022-07-17T05:44:58;6.00;;;4.78;;
36787;SDS011;22738;45.560;9.434;2022-07-17T05:51:39;11.05;;;7.35;;
36787;SDS011;22738;45.560;9.434;2022-07-17T05:58:20;16.25;;;7.60;;
36787;SDS011;22738;45.560;9.434;2022-07-17T06:05:02;8.68;;;6.55;;
36787;SDS011;22738;45.560;9.434;2022-07-17T06:11:43;8.53;;;5.73;;
36787;SDS011;22738;45.560;9.434;2022-07-17T06:18:24;9.77;;;6.73;;
36787;SDS011;22738;45.560;9.434;2022-07-17T06:25:06;11.52;;;6.28;;
36787;SDS011;22738;45.560;9.434;2022-07-17T06:31:48;9.20;;;4.90;;
36787;SDS011;22738;45.560;9.434;2022-07-17T06:38:29;9.70;;;5.23;;
36787;SDS011;22738;45.560;9.434;2022-07-17T06:45:10;8.75;;;4.97;;
36787;SDS011;22738;45.560;9.434;2022-07-17T06:51:52;12.15;;;6.10;;
36787;SDS011;22738;45.560;9.434;2022-07-17T06:58:33;12.93;;;7.03;;
36787;SDS011;22738;45.560;9.434;2022-07-17T07:05:14;10.25;;;6.55;;
36787;SDS011;22738;45.560;9.434;2022-07-17T07:11:55;9.40;;;5.63;;
36787;SDS011;22738;45.560;9.434;2022-07-17T07:18:36;9.48;;;6.50;;
36787;SDS011;22738;45.560;9.434;2022-07-17T07:25:17;8.95;;;5.65;;
36787;SDS011;22738;45.560;9.434;2022-07-17T07:31:58;8.18;;;5.43;;
36787;SDS011;22738;45.560;9.434;2022-07-17T07:38:39;11.80;;;5.85;;
36787;SDS011;22738;45.560;9.434;2022-07-17T07:45:20;9.15;;;4.75;;
36787;SDS011;22738;45.560;9.434;2022-07-17T07:52:01;12.18;;;4.75;;
36787;SDS011;22738;45.560;9.434;2022-07-17T07:58:50;9.85;;;4.72;;
36787;SDS011;22738;45.560;9.434;2022-07-17T08:05:31;8.13;;;4.07;;
36787;SDS011;22738;45.560;9.434;2022-07-17T08:12:12;12.05;;;4.60;;
36787;SDS011;22738;45.560;9.434;2022-07-17T08:18:53;6.13;;;3.95;;
36787;SDS011;22738;45.560;9.434;2022-07-17T08:25:34;16.15;;;5.00;;
36787;SDS011;22738;45.560;9.434;2022-07-17T08:32:16;10.63;;;4.20;;
36787;SDS011;22738;45.560;9.434;2022-07-17T08:38:57;15.45;;;4.55;;
36787;SDS011;22738;45.560;9.434;2022-07-17T08:45:39;7.10;;;3.95;;
36787;SDS011;22738;45.560;9.434;2022-07-17T08:59:03;12.27;;;3.60;;
36787;SDS011;22738;45.560;9.434;2022-07-17T09:05:45;6.43;;;3.10;;
36787;SDS011;22738;45.560;9.434;2022-07-17T09:12:27;4.45;;;3.53;;
36787;SDS011;22738;45.560;9.434;2022-07-17T09:19:10;10.82;;;3.40;;
36787;SDS011;22738;45.560;9.434;2022-07-17T09:25:52;5.97;;;3.60;;
36787;SDS011;22738;45.560;9.434;2022-07-17T09:32:38;12.90;;;3.90;;
36787;SDS011;22738;45.560;9.434;2022-07-17T09:39:20;5.05;;;3.25;;
36787;SDS011;22738;45.560;9.434;2022-07-17T09:46:01;6.28;;;3.08;;
36787;SDS011;22738;45.560;9.434;2022-07-17T09:52:44;17.40;;;4.00;;
36787;SDS011;22738;45.560;9.434;2022-07-17T09:59:26;8.90;;;3.72;;
36787;SDS011;22738;45.560;9.434;2022-07-17T10:06:12;10.73;;;4.15;;
36787;SDS011;22738;45.560;9.434;2022-07-17T10:12:53;14.63;;;4.80;;
36787;SDS011;22738;45.560;9.434;2022-07-17T10:19:43;8.63;;;3.83;;
36787;SDS011;22738;45.560;9.434;2022-07-17T10:26:34;8.73;;;3.63;;
36787;SDS011;22738;45.560;9.434;2022-07-17T10:33:19;8.43;;;4.10;;
36787;SDS011;22738;45.560;9.434;2022-07-17T10:40:03;10.13;;;4.43;;
36787;SDS011;22738;45.560;9.434;2022-07-17T10:46:44;6.53;;;4.47;;
36787;SDS011;22738;45.560;9.434;2022-07-17T10:53:30;7.25;;;4.63;;
36787;SDS011;22738;45.560;9.434;2022-07-17T11:00:12;9.38;;;4.32;;
36787;SDS011;22738;45.560;9.434;2022-07-17T11:06:54;7.97;;;5.05;;
36787;SDS011;22738;45.560;9.434;2022-07-17T11:13:35;10.90;;;5.30;;
36787;SDS011;22738;45.560;9.434;2022-07-17T11:20:16;6.80;;;4.22;;
36787;SDS011;22738;45.560;9.434;2022-07-17T11:26:57;8.85;;;5.00;;
36787;SDS011;22738;45.560;9.434;2022-07-17T11:33:38;12.23;;;4.68;;
36787;SDS011;22738;45.560;9.434;2022-07-17T11:40:19;10.52;;;4.95;;
36787;SDS011;22738;45.560;9.434;2022-07-17T11:47:00;9.48;;;5.18;;
36787;SDS011;22738;45.560;9.434;2022-07-17T11:53:42;10.18;;;4.53;;
36787;SDS011;22738;45.560;9.434;2022-07-17T12:00:23;11.30;;;4.50;;
36787;SDS011;22738;45.560;9.434;2022-07-17T12:07:04;10.48;;;4.93;;
36787;SDS011;22738;45.560;9.434;2022-07-17T12:13:45;7.90;;;4.82;;
36787;SDS011;22738;45.560;9.434;2022-07-17T12:27:20;5.88;;;4.40;;
36787;SDS011;22738;45.560;9.434;2022-07-17T12:34:04;6.85;;;4.13;;
36787;SDS011;22738;45.560;9.434;2022-07-17T12:40:45;9.07;;;4.45;;
36787;SDS011;22738;45.560;9.434;2022-07-17T12:47:27;6.20;;;4.53;;
36787;SDS011;22738;45.560;9.434;2022-07-17T12:54:08;5.22;;;4.25;;
36787;SDS011;22738;45.560;9.434;2022-07-17T13:00:49;12.50;;;4.35;;
36787;SDS011;22738;45.560;9.434;2022-07-17T13:07:30;9.23;;;4.60;;
36787;SDS011;22738;45.560;9.434;2022-07-17T13:14:12;12.50;;;4.43;;
36787;SDS011;22738;45.560;9.434;2022-07-17T13:20:53;6.95;;;4.47;;
36787;SDS011;22738;45.560;9.434;2022-07-17T13:27:34;9.48;;;4.35;;
36787;SDS011;22738;45.560;9.434;2022-07-17T13:34:15;5.75;;;4.15;;
36787;SDS011;22738;45.560;9.434;2022-07-17T13:40:56;10.43;;;4.45;;
36787;SDS011;22738;45.560;9.434;2022-07-17T13:47:37;4.82;;;4.10;;
36787;SDS011;22738;45.560;9.434;2022-07-17T13:54:19;9.17;;;4.47;;
36787;SDS011;22738;45.560;9.434;2022-07-17T14:01:00;5.68;;;3.83;;
36787;SDS011;22738;45.560;9.434;2022-07-17T14:07:41;6.95;;;3.92;;
36787;SDS011;22738;45.560;9.434;2022-07-17T14:14:23;8.25;;;4.60;;
36787;SDS011;22738;45.560;9.434;2022-07-17T14:21:05;7.67;;;4.53;;
36787;SDS011;22738;45.560;9.434;2022-07-17T14:27:47;5.30;;;4.30;;
36787;SDS011;22738;45.560;9.434;2022-07-17T14:34:28;9.05;;;4.63;;
36787;SDS011;22738;45.560;9.434;2022-07-17T14:41:09;7.50;;;4.75;;
36787;SDS011;22738;45.560;9.434;2022-07-17T14:47:51;11.50;;;4.78;;
36787;SDS011;22738;45.560;9.434;2022-07-17T14:54:32;8.52;;;4.45;;
36787;SDS011;22738;45.560;9.434;2022-07-17T15:01:13;9.45;;;4.43;;
36787;SDS011;22738;45.560;9.434;2022-07-17T15:07:54;6.85;;;4.65;;
36787;SDS011;22738;45.560;9.434;2022-07-17T15:14:35;6.32;;;4.20;;
36787;SDS011;22738;45.560;9.434;2022-07-17T15:21:16;9.30;;;4.50;;
36787;SDS011;22738;45.560;9.434;2022-07-17T15:27:57;7.45;;;4.07;;
36787;SDS011;22738;45.560;9.434;2022-07-17T15:34:38;6.20;;;4.43;;
36787;SDS011;22738;45.560;9.434;2022-07-17T15:41:19;6.15;;;4.43;;
36787;SDS011;22738;45.560;9.434;2022-07-17T15:48:01;5.97;;;4.13;;
36787;SDS011;22738;45.560;9.434;2022-07-17T15:54:42;7.32;;;4.93;;
36787;SDS011;22738;45.560;9.434;2022-07-17T16:01:23;8.50;;;4.40;;
36787;SDS011;22738;45.560;9.434;2022-07-17T16:08:04;8.85;;;4.70;;
36787;SDS011;22738;45.560;9.434;2022-07-17T16:14:45;13.50;;;4.55;;
36787;SDS011;22738;45.560;9.434;2022-07-17T16:21:26;9.10;;;5.03;;
36787;SDS011;22738;45.560;9.434;2022-07-17T16:28:08;7.13;;;4.93;;
36787;SDS011;22738;45.560;9.434;2022-07-17T16:34:49;9.05;;;4.65;;
36787;SDS011;22738;45.560;9.434;2022-07-17T16:41:30;11.95;;;5.25;;
36787;SDS011;22738;45.560;9.434;2022-07-17T16:48:12;8.50;;;5.38;;
36787;SDS011;22738;45.560;9.434;2022-07-17T16:54:53;7.30;;;4.63;;
36787;SDS011;22738;45.560;9.434;2022-07-17T17:01:34;6.20;;;4.72;;
36787;SDS011;22738;45.560;9.434;2022-07-17T17:08:15;7.40;;;4.60;;
36787;SDS011;22738;45.560;9.434;2022-07-17T17:14:56;5.82;;;4.43;;
36787;SDS011;22738;45.560;9.434;2022-07-17T17:21:38;6.85;;;4.93;;
36787;SDS011;22738;45.560;9.434;2022-07-17T17:28:19;8.90;;;4.70;;
36787;SDS011;22738;45.560;9.434;2022-07-17T17:35:00;10.20;;;4.60;;
36787;SDS011;22738;45.560;9.434;2022-07-17T17:41:41;8.68;;;5.82;;
36787;SDS011;22738;45.560;9.434;2022-07-17T17:48:22;8.57;;;4.22;;
36787;SDS011;22738;45.560;9.434;2022-07-17T17:55:03;5.88;;;4.88;;
36787;SDS011;22738;45.560;9.434;2022-07-17T18:01:45;10.82;;;5.07;;
36787;SDS011;22738;45.560;9.434;2022-07-17T18:08:26;13.27;;;5.78;;
36787;SDS011;22738;45.560;9.434;2022-07-17T18:15:10;14.52;;;4.72;;
36787;SDS011;22738;45.560;9.434;2022-07-17T18:21:51;9.85;;;5.50;;
36787;SDS011;22738;45.560;9.434;2022-07-17T18:28:32;16.52;;;5.30;;
36787;SDS011;22738;45.560;9.434;2022-07-17T18:35:13;10.88;;;5.00;;
36787;SDS011;22738;45.560;9.434;2022-07-17T18:41:54;7.50;;;4.88;;
36787;SDS011;22738;45.560;9.434;2022-07-17T18:48:35;11.20;;;5.07;;
36787;SDS011;22738;45.560;9.434;2022-07-17T18:55:17;6.65;;;4.82;;
36787;SDS011;22738;45.560;9.434;2022-07-17T19:01:59;6.72;;;5.10;;
36787;SDS011;22738;45.560;9.434;2022-07-17T19:08:41;5.77;;;4.27;;
36787;SDS011;22738;45.560;9.434;2022-07-17T19:15:22;12.57;;;5.70;;
36787;SDS011;22738;45.560;9.434;2022-07-17T19:22:03;8.00;;;4.93;;
36787;SDS011;22738;45.560;9.434;2022-07-17T19:28:44;8.85;;;5.03;;
36787;SDS011;22738;45.560;9.434;2022-07-17T19:35:26;7.87;;;4.50;;
36787;SDS011;22738;45.560;9.434;2022-07-17T19:42:07;6.45;;;4.93;;
36787;SDS011;22738;45.560;9.434;2022-07-17T19:48:49;5.82;;;5.13;;
36787;SDS011;22738;45.560;9.434;2022-07-17T19:55:30;7.15;;;5.28;;
36787;SDS011;22738;45.560;9.434;2022-07-17T20:02:11;7.03;;;5.20;;
36787;SDS011;22738;45.560;9.434;2022-07-17T20:08:53;8.17;;;5.23;;
36787;SDS011;22738;45.560;9.434;2022-07-17T20:15:34;7.90;;;5.07;;
36787;SDS011;22738;45.560;9.434;2022-07-17T20:22:17;13.90;;;6.30;;
36787;SDS011;22738;45.560;9.434;2022-07-17T20:28:58;18.25;;;6.00;;
36787;SDS011;22738;45.560;9.434;2022-07-17T20:35:40;12.68;;;6.03;;
36787;SDS011;22738;45.560;9.434;2022-07-17T20:42:25;11.80;;;6.05;;
36787;SDS011;22738;45.560;9.434;2022-07-17T20:49:06;9.55;;;5.18;;
36787;SDS011;22738;45.560;9.434;2022-07-17T20:55:47;8.57;;;5.85;;
36787;SDS011;22738;45.560;9.434;2022-07-17T21:02:28;10.18;;;5.13;;
36787;SDS011;22738;45.560;9.434;2022-07-17T21:09:09;7.07;;;5.63;;
36787;SDS011;22738;45.560;9.434;2022-07-17T21:15:51;6.30;;;5.50;;
36787;SDS011;22738;45.560;9.434;2022-07-17T21:22:32;9.95;;;5.88;;
36787;SDS011;22738;45.560;9.434;2022-07-17T21:29:17;11.07;;;5.35;;
36787;SDS011;22738;45.560;9.434;2022-07-17T21:35:58;8.30;;;5.45;;
36787;SDS011;22738;45.560;9.434;2022-07-17T21:42:42;8.00;;;5.03;;
36787;SDS011;22738;45.560;9.434;2022-07-17T21:49:23;8.32;;;5.18;;
36787;SDS011;22738;45.560;9.434;2022-07-17T21:56:04;8.32;;;5.47;;
36787;SDS011;22738;45.560;9.434;2022-07-17T22:02:45;7.38;;;4.82;;
36787;SDS011;22738;45.560;9.434;2022-07-17T22:09:26;7.53;;;4.82;;
36787;SDS011;22738;45.560;9.434;2022-07-17T22:16:08;9.55;;;5.15;;
36787;SDS011;22738;45.560;9.434;2022-07-17T22:22:49;11.68;;;5.32;;
36787;SDS011;22738;45.560;9.434;2022-07-17T22:29:30;11.68;;;5.85;;
36787;SDS011;22738;45.560;9.434;2022-07-17T22:36:11;9.55;;;5.90;;
36787;SDS011;22738;45.560;9.434;2022-07-17T22:42:52;13.57;;;5.22;;
36787;SDS011;22738;45.560;9.434;2022-07-17T22:49:33;10.90;;;5.03;;
36787;SDS011;22738;45.560;9.434;2022-07-17T22:56:15;7.85;;;4.55;;
36787;SDS011;22738;45.560;9.434;2022-07-17T23:02:57;9.23;;;5.38;;
36787;SDS011;22738;45.560;9.434;2022-07-17T23:09:38;9.73;;;5.68;;
36787;SDS011;22738;45.560;9.434;2022-07-17T23:16:20;9.65;;;5.88;;
36787;SDS011;22738;45.560;9.434;2022-07-17T23:23:01;9.15;;;4.72;;
36787;SDS011;22738;45.560;9.434;2022-07-17T23:29:42;7.50;;;4.90;;
36787;SDS011;22738;45.560;9.434;2022-07-17T23:36:23;9.50;;;5.35;;
36787;SDS011;22738;45.560;9.434;2022-07-17T23:43:05;10.75;;;4.93;;
36787;SDS011;22738;45.560;9.434;2022-07-17T23:49:46;6.72;;;4.80;;
36787;SDS011;22738;45.560;9.434;2022-07-17T23:56:27;15.90;;;5.10;;
